Crystal Serenity — C6SY3 — position and weather

sailwx.info

Track history (hours):
 
Tides and Currents Weather Stations Pressure Air Temp Water Temp Dewpoint Dewpoint Depression Visibility Wind Speed Wind Dir Waves Ship Positions

Crystal Serenity

Operator: Crystal Cruises

Last reported at 2018-Aug-15 04:00 UTC. Time now 2018-Aug-15 12:36 UTC.
Position N 40°06' E 003°42'.

Length 250 m; draft 7.5 m.

Type: Passenger vessel. MMSI: 311536000.

Barometer 1017.0 mb
Air temperature 27.0 ° C
Visibility: greater than 10.8 NM
Water temperature 28.0 ° C

Date/timePositionNaut miles runAvg speedWind from/ knotsBaromVisibWave heightAir tempDewpointWater temp
2018-Aug-15 04:00N 40°06' E 003°42'13913.9 1017.010.8 27.0 28.0
2018-Aug-14 18:00N 42°24' E 003°24'15 3.6 310 / 281016.010.8 29.018.224.0
2018-Aug-14 14:00N 42°30' E 003°06'0 0.0 320 / 401017.010.8 27.0 25.0
2018-Aug-14 09:00N 42°30' E 003°06'0 0.0 330 / 261017.010.8 23.016.523.0
2018-Aug-14 07:00N 42°30' E 003°06'57 8.5 1016.010.8 22.0 23.0
2018-Aug-14 00:15N 43°14' E 003°56'612.5
2018-Aug-13 23:47N 43°14' E 004°04'3513.2
2018-Aug-13 21:08N 43°09' E 004°52'430.9
2018-Aug-13 21:00N 43°06' E 004°48'1320.3 300 / 181013.010.8 24.021.025.0
2018-Aug-13 20:21N 43°10' E 005°05'412.3
2018-Aug-13 20:00N 43°13' E 005°09'912.7
2018-Aug-13 19:19N 43°20' E 005°17'2 0.4
2018-Aug-13 13:00N 43°18' E 005°18'0 0.0 140 / 91014.0 28.0 25.0
2018-Aug-13 11:00N 43°18' E 005°18'0 0.0 1014.0 26.021.524.0
2018-Aug-13 06:00N 43°18' E 005°18'3 1.7 1014.010.8 21.0 25.0
2018-Aug-13 04:28N 43°19' E 005°15'510.5
2018-Aug-13 03:58N 43°15' E 005°11'7113.9
2018-Aug-12 22:52N 42°48' E 006°41'718.6
2018-Aug-12 22:30N 42°53' E 006°46'918.5
2018-Aug-12 22:00N 42°60' E 006°55'918.3
2018-Aug-12 21:30N 43°07' E 007°03'917.9
2018-Aug-12 21:00N 43°14' E 007°10'12868.7
2018-Aug-12 21:00N 43°24' E 007°18'3 6.5 250 / 141015.010.8 26.021.528.0
2018-Aug-12 20:30N 43°21' E 007°19'1017.9
2018-Aug-12 19:55N 43°31' E 007°23'818.1
2018-Aug-12 19:28N 43°38' E 007°26'612.6
2018-Aug-12 19:00N 43°44' E 007°26'0 0.5
2018-Aug-12 18:29N 43°44' E 007°26'0 0.0
2018-Aug-12 17:59N 43°44' E 007°26'0 0.0
2018-Aug-12 17:29N 43°44' E 007°26'0 0.0
2018-Aug-12 16:56N 43°44' E 007°26'0 0.0
2018-Aug-12 16:29N 43°44' E 007°26'0 0.0
2018-Aug-12 15:59N 43°44' E 007°26'0 0.0
2018-Aug-12 15:29N 43°44' E 007°26'0 0.0
2018-Aug-12 14:59N 43°44' E 007°26'0 0.0
2018-Aug-12 14:29N 43°44' E 007°26'0 0.0
2018-Aug-12 13:59N 43°44' E 007°26'0 0.0
2018-Aug-12 13:29N 43°44' E 007°26'0 0.0
2018-Aug-12 12:59N 43°44' E 007°26'0 0.0
2018-Aug-12 12:29N 43°44' E 007°26'0 0.0
2018-Aug-12 11:59N 43°44' E 007°26'0 0.0
2018-Aug-12 11:29N 43°44' E 007°26'0 0.0
2018-Aug-12 10:59N 43°44' E 007°26'0 0.0
2018-Aug-12 10:29N 43°44' E 007°26'3 5.1
2018-Aug-12 10:00N 43°42' E 007°24'31317.8 050 / 31017.0 26.024.626.0
2018-Aug-12 09:59N 43°44' E 007°26'0 0.0
2018-Aug-12 09:29N 43°44' E 007°26'0 0.0
2018-Aug-12 08:59N 43°44' E 007°26'0 0.0
2018-Aug-12 08:29N 43°44' E 007°26'0 0.0
2018-Aug-12 07:59N 43°44' E 007°26'0 0.0
2018-Aug-12 07:29N 43°44' E 007°26'0 0.0
2018-Aug-12 06:59N 43°44' E 007°26'0 0.0
2018-Aug-12 06:29N 43°44' E 007°26'0 0.0
2018-Aug-12 05:59N 43°44' E 007°26'0 0.0
2018-Aug-12 05:26N 43°44' E 007°26'0 0.0
2018-Aug-12 04:59N 43°44' E 007°26'0 0.2
2018-Aug-12 04:31N 43°44' E 007°26'1 1.7
2018-Aug-12 04:00N 43°44' E 007°27'0 0.7
2018-Aug-12 03:29N 43°44' E 007°27'0 0.0
2018-Aug-12 02:59N 43°44' E 007°27'0 0.1
2018-Aug-12 02:29N 43°44' E 007°27'0 0.0
2018-Aug-12 01:59N 43°44' E 007°27'0 0.0
2018-Aug-12 01:29N 43°44' E 007°27'0 0.0
2018-Aug-12 00:59N 43°44' E 007°27'0 0.0
2018-Aug-12 00:29N 43°44' E 007°27'0 0.0
2018-Aug-11 23:59N 43°44' E 007°27'0 0.0
2018-Aug-11 23:29N 43°44' E 007°27'0 0.0
2018-Aug-11 22:59N 43°44' E 007°27'0 0.0
2018-Aug-11 22:29N 43°44' E 007°27'0 0.0
2018-Aug-11 21:59N 43°44' E 007°27'0 0.0
2018-Aug-11 21:29N 43°44' E 007°27'0 0.0
2018-Aug-11 20:56N 43°44' E 007°27'0 0.1
2018-Aug-11 20:29N 43°44' E 007°27'0 0.0
2018-Aug-11 19:59N 43°44' E 007°27'0 0.1
2018-Aug-11 19:29N 43°44' E 007°27'0 0.0
2018-Aug-11 18:56N 43°44' E 007°27'0 0.0
2018-Aug-11 18:23N 43°44' E 007°27'0 0.0
2018-Aug-11 17:53N 43°44' E 007°27'0 0.0
2018-Aug-11 17:29N 43°44' E 007°27'0 0.0
2018-Aug-11 16:59N 43°44' E 007°27'0 0.0
2018-Aug-11 16:26N 43°44' E 007°27'0 0.1
2018-Aug-11 15:59N 43°44' E 007°27'0 0.0
2018-Aug-11 15:26N 43°44' E 007°27'0 0.1
2018-Aug-11 14:59N 43°44' E 007°27'0 0.2
2018-Aug-11 14:29N 43°44' E 007°27'0 0.1
2018-Aug-11 13:59N 43°44' E 007°27'0 0.0
2018-Aug-11 13:29N 43°44' E 007°27'0 0.0
2018-Aug-11 11:26N 43°44' E 007°27'3 0.5
2018-Aug-11 04:39N 43°41' E 007°26'511.0
2018-Aug-11 04:10N 43°36' E 007°25'633.8
2018-Aug-11 04:00N 43°30' E 007°24'1 4.8 1018.010.8 25.0 27.0
2018-Aug-11 03:45N 43°31' E 007°23'314.0
2018-Aug-11 03:30N 43°28' E 007°22'713.8
2018-Aug-11 03:01N 43°21' E 007°18'713.8
2018-Aug-11 02:30N 43°16' E 007°12'713.9
2018-Aug-11 02:00N 43°11' E 007°06'713.5
2018-Aug-11 01:30N 43°05' E 007°01'713.7
2018-Aug-11 01:00N 42°59' E 006°56'17511663.3
2018-Aug-11 01:00N 45°54' E 006°42'177366.6 280 / 161021.010.8 27.0 27.0
2018-Aug-11 00:31N 42°57' E 006°48'714.2
2018-Aug-11 00:01N 42°56' E 006°38'714.1
2018-Aug-10 23:30N 42°55' E 006°28'3413.6
2018-Aug-10 21:00N 42°54' E 005°42'19 1.1 290 / 211021.010.8 26.019.927.0
2018-Aug-10 04:00N 43°00' E 005°18'4514.9 1020.010.8 23.0 27.0
2018-Aug-10 01:00N 42°24' E 004°42'6120.4 330 / 251020.010.8 24.0 26.0
2018-Aug-09 22:00N 41°42' E 003°42'2512.7 360 / 401019.010.8 24.017.726.0
2018-Aug-09 20:00N 41°30' E 003°12'3515.7 010 / 401017.010.8 24.017.726.0
2018-Aug-09 17:46N 41°17' E 002°29'416.8
2018-Aug-09 17:30N 41°16' E 002°23'917.5
2018-Aug-09 17:00N 41°16' E 002°11'510.5
2018-Aug-09 16:30N 41°21' E 002°10'1 1.4
2018-Aug-09 16:00N 41°21' E 002°11'0 0.0
2018-Aug-09 15:30N 41°21' E 002°11'0 0.0
2018-Aug-09 15:00N 41°21' E 002°11'5369.4
2018-Aug-09 15:00N 41°18' E 002°06'5 9.9 1015.0 5.4 25.0 26.0
2018-Aug-09 14:30N 41°21' E 002°11'0 0.0
2018-Aug-09 14:00N 41°21' E 002°11'0 0.0
2018-Aug-09 13:30N 41°21' E 002°11'0 0.0
2018-Aug-09 13:00N 41°21' E 002°11'0 0.0
2018-Aug-09 12:30N 41°21' E 002°11'0 0.0
2018-Aug-09 12:00N 41°21' E 002°11'5369.4
2018-Aug-09 12:00N 41°18' E 002°06'5 9.9 170 / 111014.0 31.0 26.0
2018-Aug-09 11:30N 41°21' E 002°11'0 0.0
2018-Aug-09 11:00N 41°21' E 002°11'0 0.0
2018-Aug-09 10:30N 41°21' E 002°11'0 0.0
2018-Aug-09 10:00N 41°21' E 002°11'0 0.0
2018-Aug-09 09:30N 41°21' E 002°11'0 0.0
2018-Aug-09 09:00N 41°21' E 002°11'0 0.0
2018-Aug-09 08:30N 41°21' E 002°11'0 0.0
2018-Aug-09 08:00N 41°21' E 002°11'0 0.0
2018-Aug-09 07:30N 41°21' E 002°11'0 0.0
2018-Aug-09 07:00N 41°21' E 002°11'0 0.0
2018-Aug-09 06:30N 41°21' E 002°11'0 0.0
2018-Aug-09 06:00N 41°21' E 002°11'0 0.0
2018-Aug-09 05:30N 41°21' E 002°11'0 0.0
2018-Aug-09 05:00N 41°21' E 002°11'0 0.0
2018-Aug-09 04:30N 41°21' E 002°11'0 0.0
2018-Aug-09 04:00N 41°21' E 002°11'0 0.0
2018-Aug-09 03:30N 41°21' E 002°11'0 0.0
2018-Aug-09 03:00N 41°21' E 002°11'0 0.0
2018-Aug-09 02:30N 41°21' E 002°11'0 0.0
2018-Aug-09 02:00N 41°21' E 002°11'0 0.0
2018-Aug-09 01:30N 41°21' E 002°11'0 0.0
2018-Aug-09 01:00N 41°21' E 002°11'0 0.0
2018-Aug-09 00:30N 41°21' E 002°11'0 0.0
2018-Aug-09 00:00N 41°21' E 002°11'5369.8
2018-Aug-09 00:00N 41°18' E 002°06'5 9.9 1014.0 28.0 26.0
2018-Aug-08 23:30N 41°21' E 002°11'0 0.0
2018-Aug-08 23:00N 41°21' E 002°11'0 0.0
2018-Aug-08 22:30N 41°21' E 002°11'0 0.0
2018-Aug-08 22:00N 41°21' E 002°11'0 0.0
2018-Aug-08 21:30N 41°21' E 002°11'0 0.0
2018-Aug-08 21:00N 41°21' E 002°11'0 0.0
2018-Aug-08 20:30N 41°21' E 002°11'0 0.0
2018-Aug-08 20:00N 41°21' E 002°11'0 0.0
2018-Aug-08 19:30N 41°21' E 002°11'0 0.0
2018-Aug-08 19:00N 41°21' E 002°11'0 0.0
2018-Aug-08 18:30N 41°21' E 002°11'0 0.0
2018-Aug-08 18:00N 41°21' E 002°11'0 0.0
2018-Aug-08 17:29N 41°21' E 002°11'0 0.0
2018-Aug-08 16:59N 41°21' E 002°11'0 0.0
2018-Aug-08 16:29N 41°21' E 002°11'0 0.0
2018-Aug-08 15:59N 41°21' E 002°11'0 0.0
2018-Aug-08 15:29N 41°21' E 002°11'0 0.0
2018-Aug-08 14:59N 41°21' E 002°11'0 0.0
2018-Aug-08 14:29N 41°21' E 002°11'0 0.0
2018-Aug-08 13:59N 41°21' E 002°11'0 0.4
2018-Aug-08 13:31N 41°21' E 002°10'3 6.3
2018-Aug-08 13:00N 41°18' E 002°11'815.3
2018-Aug-08 12:30N 41°11' E 002°10'713.6
2018-Aug-08 12:00N 41°04' E 002°08'4290.0
2018-Aug-08 12:00N 41°00' E 002°06'5 7.4 1015.010.8 30.0 28.0
2018-Aug-08 11:20N 40°56' E 002°03'1545.3
2018-Aug-08 11:00N 40°42' E 001°54'6813.6 230 / 71014.010.8 30.024.329.0
2018-Aug-08 06:00N 39°42' E 001°12'9219.5 1013.010.8 28.0 27.0
2018-Aug-08 01:17N 38°23' E 000°13'519.1
2018-Aug-08 01:00N 38°18' E 000°10'1218.7
2018-Aug-08 00:21N 38°08' E 000°01'718.7
2018-Aug-08 00:00N 38°02' W 000°04'918.4
2018-Aug-07 23:30N 37°55' W 000°11'918.4
2018-Aug-07 22:59N 37°47' W 000°18'918.4
2018-Aug-07 22:30N 37°40' W 000°25'1218.1
2018-Aug-07 21:50N 37°31' W 000°34'617.7
2018-Aug-07 21:30N 37°26' W 000°39'918.1
2018-Aug-07 21:00N 37°20' W 000°47'1318.3
2018-Aug-07 20:17N 37°11' W 000°59'618.5
2018-Aug-07 19:57N 37°07' W 001°05'818.5
2018-Aug-07 19:30N 37°01' W 001°13'3522.8
2018-Aug-07 18:00N 36°36' W 001°42'2613.2 030 / 151011.0 2.2 27.025.626.0
2018-Aug-07 16:00N 36°18' W 002°06'7318.2 1011.010.8 28.0 27.0
2018-Aug-07 12:00N 36°12' W 003°36'5919.8 100 / 81012.010.8 28.0 21.0
2018-Aug-07 09:00N 36°00' W 004°48'2040.0 1012.0 2.2 24.022.520.0
2018-Aug-07 08:29N 36°00' W 005°13'1019.7
2018-Aug-07 08:00N 35°58' W 005°24'3115.2
2018-Aug-07 06:00N 35°48' W 006°00'2022.7 1012.010.8 24.0 22.0
2018-Aug-07 05:05N 35°55' W 006°24'618.8
2018-Aug-07 04:47N 35°56' W 006°30'619.0
2018-Aug-07 04:27N 35°59' W 006°38'818.5
2018-Aug-07 03:59N 36°01' W 006°48'917.6
2018-Aug-07 03:30N 36°03' W 006°58'5118.0
2018-Aug-07 00:39N 36°15' W 007°60'318.5
2018-Aug-07 00:29N 36°16' W 008°04'918.1
2018-Aug-07 00:00N 36°18' W 008°14'918.1
2018-Aug-06 23:30N 36°21' W 008°25'918.1
2018-Aug-06 23:00N 36°24' W 008°35'917.8
2018-Aug-06 22:30N 36°26' W 008°46'917.6
2018-Aug-06 21:59N 36°29' W 008°57'817.4
2018-Aug-06 21:30N 36°30' W 009°07'917.4
2018-Aug-06 21:00N 36°33' W 009°18'917.7
2018-Aug-06 20:30N 36°39' W 009°25'918.1
2018-Aug-06 20:00N 36°46' W 009°32'261628.2
2018-Aug-06 20:00N 37°12' W 009°30'1836.4 350 / 211015.0 23.019.921.0
2018-Aug-06 19:30N 36°55' W 009°36'918.1
2018-Aug-06 19:00N 37°04' W 009°37'918.8
2018-Aug-06 18:30N 37°13' W 009°35'918.5
2018-Aug-06 18:00N 37°22' W 009°33'918.2
2018-Aug-06 17:30N 37°31' W 009°31'917.4
2018-Aug-06 17:00N 37°40' W 009°30'4255.0
2018-Aug-06 17:00N 37°36' W 009°30'1327.2 1015.0 5.4 22.0 20.0
2018-Aug-06 16:30N 37°49' W 009°32'918.8
2018-Aug-06 16:00N 37°59' W 009°31'1019.1
2018-Aug-06 15:30N 38°08' W 009°30'1019.1
2018-Aug-06 15:00N 38°18' W 009°29'919.0
2018-Aug-06 14:30N 38°27' W 009°27'918.7
2018-Aug-06 14:01N 38°36' W 009°24'917.3
2018-Aug-06 13:30N 38°41' W 009°15'611.8
2018-Aug-06 13:00N 38°42' W 009°08'0 0.3
2018-Aug-06 12:30N 38°42' W 009°08'0 0.0
2018-Aug-06 12:00N 38°42' W 009°08'0 0.0
2018-Aug-06 11:30N 38°42' W 009°08'0 0.0
2018-Aug-06 11:00N 38°42' W 009°08'0 0.0
2018-Aug-06 10:30N 38°42' W 009°08'0 0.0
2018-Aug-06 10:00N 38°42' W 009°08'0 0.0
2018-Aug-06 09:30N 38°42' W 009°08'0 0.0
2018-Aug-06 09:00N 38°42' W 009°08'0 0.0
2018-Aug-06 08:30N 38°42' W 009°08'0 0.0
2018-Aug-06 08:00N 38°42' W 009°08'0 0.0
2018-Aug-06 07:30N 38°42' W 009°08'0 0.0
2018-Aug-06 06:57N 38°42' W 009°08'0 0.0
2018-Aug-06 06:30N 38°42' W 009°08'0 0.0
2018-Aug-06 06:00N 38°42' W 009°08'0 0.0
2018-Aug-06 05:30N 38°42' W 009°08'0 0.0
2018-Aug-06 05:00N 38°42' W 009°08'0 0.0
2018-Aug-06 04:30N 38°42' W 009°08'0 0.0
2018-Aug-06 04:00N 38°42' W 009°08'0 0.0
2018-Aug-06 03:30N 38°42' W 009°08'0 0.0
2018-Aug-06 03:00N 38°42' W 009°08'0 0.0
2018-Aug-06 02:30N 38°42' W 009°08'0 0.0
2018-Aug-06 02:00N 38°42' W 009°08'0 0.0
2018-Aug-06 01:30N 38°42' W 009°08'0 0.0
2018-Aug-06 01:00N 38°42' W 009°08'0 0.0
2018-Aug-06 00:30N 38°42' W 009°08'0 0.0
2018-Aug-06 00:00N 38°42' W 009°08'0 0.0
2018-Aug-05 23:24N 38°42' W 009°08'0 0.0
2018-Aug-05 23:00N 38°42' W 009°08'0 0.0
2018-Aug-05 22:30N 38°42' W 009°08'0 0.0
2018-Aug-05 22:00N 38°42' W 009°08'0 0.0
2018-Aug-05 21:30N 38°42' W 009°08'0 0.0
2018-Aug-05 21:00N 38°42' W 009°08'0 0.0
2018-Aug-05 20:30N 38°42' W 009°08'0 0.0
2018-Aug-05 20:00N 38°42' W 009°08'0 0.0
2018-Aug-05 19:30N 38°42' W 009°08'0 0.0
2018-Aug-05 19:00N 38°42' W 009°08'0 0.0
2018-Aug-05 18:30N 38°42' W 009°08'0 0.0
2018-Aug-05 17:54N 38°42' W 009°08'0 0.0
2018-Aug-05 17:27N 38°42' W 009°08'0 0.0
2018-Aug-05 16:57N 38°42' W 009°08'0 0.0
2018-Aug-05 16:30N 38°42' W 009°08'0 0.0
2018-Aug-05 16:00N 38°42' W 009°08'0 0.0
2018-Aug-05 15:30N 38°42' W 009°08'0 0.0
2018-Aug-05 15:00N 38°42' W 009°08'0 0.0
2018-Aug-05 14:30N 38°42' W 009°08'0 0.0
2018-Aug-05 13:27N 38°42' W 009°08'0 0.0
2018-Aug-05 13:00N 38°42' W 009°08'186.7
2018-Aug-05 13:00N 38°42' W 009°06'1 2.9 1015.0 40.0 23.0
2018-Aug-05 12:30N 38°42' W 009°08'0 0.0
2018-Aug-05 12:00N 38°42' W 009°08'0 0.0
2018-Aug-05 11:30N 38°42' W 009°08'0 0.0
2018-Aug-05 11:00N 38°42' W 009°08'0 0.0
2018-Aug-05 10:30N 38°42' W 009°08'0 0.0
2018-Aug-05 10:00N 38°42' W 009°08'0 0.0
2018-Aug-05 09:30N 38°42' W 009°08'0 0.0
2018-Aug-05 09:00N 38°42' W 009°08'0 0.0
2018-Aug-05 08:30N 38°42' W 009°08'0 0.0
2018-Aug-05 08:00N 38°42' W 009°08'0 0.0
2018-Aug-05 07:30N 38°42' W 009°08'0 0.0
2018-Aug-05 07:00N 38°42' W 009°08'0 0.3
2018-Aug-05 06:30N 38°42' W 009°08'5 9.0
2018-Aug-05 06:00N 38°41' W 009°13'6389.4
2018-Aug-05 06:00N 38°36' W 009°18'3 6.6 1016.010.8 31.0 17.0
2018-Aug-05 05:30N 38°39' W 009°20'713.7
2018-Aug-05 05:01N 38°36' W 009°29'714.7
2018-Aug-05 04:30N 38°37' W 009°38'611.9
2018-Aug-05 04:01N 38°42' W 009°43'  
Track history (hours):
 
Tides and Currents Weather Stations Pressure Air Temp Water Temp Dewpoint Dewpoint Depression Visibility Wind Speed Wind Dir Waves Ship Positions

Crystal Serenity

Operator: Crystal Cruises

Last reported at 2018-Aug-15 04:00 UTC. Time now 2018-Aug-15 12:36 UTC.
Position N 40°06' E 003°42'.

Length 250 m; draft 7.5 m.

Type: Passenger vessel. MMSI: 311536000.

Barometer 1017.0 mb
Air temperature 27.0 ° C
Visibility: greater than 10.8 NM
Water temperature 28.0 ° C

Date/timePositionNaut miles runAvg speedWind from/ knotsBaromVisibWave heightAir tempDewpointWater temp
2018-Aug-15 04:00N 40°06' E 003°42'13913.9 1017.010.8 27.0 28.0
2018-Aug-14 18:00N 42°24' E 003°24'15 3.6 310 / 281016.010.8 29.018.224.0
2018-Aug-14 14:00N 42°30' E 003°06'0 0.0 320 / 401017.010.8 27.0 25.0
2018-Aug-14 09:00N 42°30' E 003°06'0 0.0 330 / 261017.010.8 23.016.523.0
2018-Aug-14 07:00N 42°30' E 003°06'57 8.5 1016.010.8 22.0 23.0
2018-Aug-14 00:15N 43°14' E 003°56'612.5
2018-Aug-13 23:47N 43°14' E 004°04'3513.2
2018-Aug-13 21:08N 43°09' E 004°52'430.9
2018-Aug-13 21:00N 43°06' E 004°48'1320.3 300 / 181013.010.8 24.021.025.0
2018-Aug-13 20:21N 43°10' E 005°05'412.3
2018-Aug-13 20:00N 43°13' E 005°09'912.7
2018-Aug-13 19:19N 43°20' E 005°17'2 0.4
2018-Aug-13 13:00N 43°18' E 005°18'0 0.0 140 / 91014.0 28.0 25.0
2018-Aug-13 11:00N 43°18' E 005°18'0 0.0 1014.0 26.021.524.0
2018-Aug-13 06:00N 43°18' E 005°18'3 1.7 1014.010.8 21.0 25.0
2018-Aug-13 04:28N 43°19' E 005°15'510.5
2018-Aug-13 03:58N 43°15' E 005°11'7113.9
2018-Aug-12 22:52N 42°48' E 006°41'718.6
2018-Aug-12 22:30N 42°53' E 006°46'918.5
2018-Aug-12 22:00N 42°60' E 006°55'918.3
2018-Aug-12 21:30N 43°07' E 007°03'917.9
2018-Aug-12 21:00N 43°14' E 007°10'12868.7
2018-Aug-12 21:00N 43°24' E 007°18'3 6.5 250 / 141015.010.8 26.021.528.0
2018-Aug-12 20:30N 43°21' E 007°19'1017.9
2018-Aug-12 19:55N 43°31' E 007°23'818.1
2018-Aug-12 19:28N 43°38' E 007°26'612.6
2018-Aug-12 19:00N 43°44' E 007°26'0 0.5
2018-Aug-12 18:29N 43°44' E 007°26'0 0.0
2018-Aug-12 17:59N 43°44' E 007°26'0 0.0
2018-Aug-12 17:29N 43°44' E 007°26'0 0.0
2018-Aug-12 16:56N 43°44' E 007°26'0 0.0
2018-Aug-12 16:29N 43°44' E 007°26'0 0.0
2018-Aug-12 15:59N 43°44' E 007°26'0 0.0
2018-Aug-12 15:29N 43°44' E 007°26'0 0.0
2018-Aug-12 14:59N 43°44' E 007°26'0 0.0
2018-Aug-12 14:29N 43°44' E 007°26'0 0.0
2018-Aug-12 13:59N 43°44' E 007°26'0 0.0
2018-Aug-12 13:29N 43°44' E 007°26'0 0.0
2018-Aug-12 12:59N 43°44' E 007°26'0 0.0
2018-Aug-12 12:29N 43°44' E 007°26'0 0.0
2018-Aug-12 11:59N 43°44' E 007°26'0 0.0
2018-Aug-12 11:29N 43°44' E 007°26'0 0.0
2018-Aug-12 10:59N 43°44' E 007°26'0 0.0
2018-Aug-12 10:29N 43°44' E 007°26'3 5.1
2018-Aug-12 10:00N 43°42' E 007°24'31317.8 050 / 31017.0 26.024.626.0
2018-Aug-12 09:59N 43°44' E 007°26'0 0.0
2018-Aug-12 09:29N 43°44' E 007°26'0 0.0
2018-Aug-12 08:59N 43°44' E 007°26'0 0.0
2018-Aug-12 08:29N 43°44' E 007°26'0 0.0
2018-Aug-12 07:59N 43°44' E 007°26'0 0.0
2018-Aug-12 07:29N 43°44' E 007°26'0 0.0
2018-Aug-12 06:59N 43°44' E 007°26'0 0.0
2018-Aug-12 06:29N 43°44' E 007°26'0 0.0
2018-Aug-12 05:59N 43°44' E 007°26'0 0.0
2018-Aug-12 05:26N 43°44' E 007°26'0 0.0
2018-Aug-12 04:59N 43°44' E 007°26'0 0.2
2018-Aug-12 04:31N 43°44' E 007°26'1 1.7
2018-Aug-12 04:00N 43°44' E 007°27'0 0.7
2018-Aug-12 03:29N 43°44' E 007°27'0 0.0
2018-Aug-12 02:59N 43°44' E 007°27'0 0.1
2018-Aug-12 02:29N 43°44' E 007°27'0 0.0
2018-Aug-12 01:59N 43°44' E 007°27'0 0.0
2018-Aug-12 01:29N 43°44' E 007°27'0 0.0
2018-Aug-12 00:59N 43°44' E 007°27'0 0.0
2018-Aug-12 00:29N 43°44' E 007°27'0 0.0
2018-Aug-11 23:59N 43°44' E 007°27'0 0.0
2018-Aug-11 23:29N 43°44' E 007°27'0 0.0
2018-Aug-11 22:59N 43°44' E 007°27'0 0.0
2018-Aug-11 22:29N 43°44' E 007°27'0 0.0
2018-Aug-11 21:59N 43°44' E 007°27'0 0.0
2018-Aug-11 21:29N 43°44' E 007°27'0 0.0
2018-Aug-11 20:56N 43°44' E 007°27'0 0.1
2018-Aug-11 20:29N 43°44' E 007°27'0 0.0
2018-Aug-11 19:59N 43°44' E 007°27'0 0.1
2018-Aug-11 19:29N 43°44' E 007°27'0 0.0
2018-Aug-11 18:56N 43°44' E 007°27'0 0.0
2018-Aug-11 18:23N 43°44' E 007°27'0 0.0
2018-Aug-11 17:53N 43°44' E 007°27'0 0.0
2018-Aug-11 17:29N 43°44' E 007°27'0 0.0
2018-Aug-11 16:59N 43°44' E 007°27'0 0.0
2018-Aug-11 16:26N 43°44' E 007°27'0 0.1
2018-Aug-11 15:59N 43°44' E 007°27'0 0.0
2018-Aug-11 15:26N 43°44' E 007°27'0 0.1
2018-Aug-11 14:59N 43°44' E 007°27'0 0.2
2018-Aug-11 14:29N 43°44' E 007°27'0 0.1
2018-Aug-11 13:59N 43°44' E 007°27'0 0.0
2018-Aug-11 13:29N 43°44' E 007°27'0 0.0
2018-Aug-11 11:26N 43°44' E 007°27'3 0.5
2018-Aug-11 04:39N 43°41' E 007°26'511.0
2018-Aug-11 04:10N 43°36' E 007°25'633.8
2018-Aug-11 04:00N 43°30' E 007°24'1 4.8 1018.010.8 25.0 27.0
2018-Aug-11 03:45N 43°31' E 007°23'314.0
2018-Aug-11 03:30N 43°28' E 007°22'713.8
2018-Aug-11 03:01N 43°21' E 007°18'713.8
2018-Aug-11 02:30N 43°16' E 007°12'713.9
2018-Aug-11 02:00N 43°11' E 007°06'713.5
2018-Aug-11 01:30N 43°05' E 007°01'713.7
2018-Aug-11 01:00N 42°59' E 006°56'17511663.3
2018-Aug-11 01:00N 45°54' E 006°42'177366.6 280 / 161021.010.8 27.0 27.0
2018-Aug-11 00:31N 42°57' E 006°48'714.2
2018-Aug-11 00:01N 42°56' E 006°38'714.1
2018-Aug-10 23:30N 42°55' E 006°28'3413.6
2018-Aug-10 21:00N 42°54' E 005°42'19 1.1 290 / 211021.010.8 26.019.927.0
2018-Aug-10 04:00N 43°00' E 005°18'4514.9 1020.010.8 23.0 27.0
2018-Aug-10 01:00N 42°24' E 004°42'6120.4 330 / 251020.010.8 24.0 26.0
2018-Aug-09 22:00N 41°42' E 003°42'2512.7 360 / 401019.010.8 24.017.726.0
2018-Aug-09 20:00N 41°30' E 003°12'3515.7 010 / 401017.010.8 24.017.726.0
2018-Aug-09 17:46N 41°17' E 002°29'416.8
2018-Aug-09 17:30N 41°16' E 002°23'917.5
2018-Aug-09 17:00N 41°16' E 002°11'510.5
2018-Aug-09 16:30N 41°21' E 002°10'1 1.4
2018-Aug-09 16:00N 41°21' E 002°11'0 0.0
2018-Aug-09 15:30N 41°21' E 002°11'0 0.0
2018-Aug-09 15:00N 41°21' E 002°11'5369.4
2018-Aug-09 15:00N 41°18' E 002°06'5 9.9 1015.0 5.4 25.0 26.0
2018-Aug-09 14:30N 41°21' E 002°11'0 0.0
2018-Aug-09 14:00N 41°21' E 002°11'0 0.0
2018-Aug-09 13:30N 41°21' E 002°11'0 0.0
2018-Aug-09 13:00N 41°21' E 002°11'0 0.0
2018-Aug-09 12:30N 41°21' E 002°11'0 0.0
2018-Aug-09 12:00N 41°21' E 002°11'5369.4
2018-Aug-09 12:00N 41°18' E 002°06'5 9.9 170 / 111014.0 31.0 26.0
2018-Aug-09 11:30N 41°21' E 002°11'0 0.0
2018-Aug-09 11:00N 41°21' E 002°11'0 0.0
2018-Aug-09 10:30N 41°21' E 002°11'0 0.0
2018-Aug-09 10:00N 41°21' E 002°11'0 0.0
2018-Aug-09 09:30N 41°21' E 002°11'0 0.0
2018-Aug-09 09:00N 41°21' E 002°11'0 0.0
2018-Aug-09 08:30N 41°21' E 002°11'0 0.0
2018-Aug-09 08:00N 41°21' E 002°11'0 0.0
2018-Aug-09 07:30N 41°21' E 002°11'0 0.0
2018-Aug-09 07:00N 41°21' E 002°11'0 0.0
2018-Aug-09 06:30N 41°21' E 002°11'0 0.0
2018-Aug-09 06:00N 41°21' E 002°11'0 0.0
2018-Aug-09 05:30N 41°21' E 002°11'0 0.0
2018-Aug-09 05:00N 41°21' E 002°11'0 0.0
2018-Aug-09 04:30N 41°21' E 002°11'0 0.0
2018-Aug-09 04:00N 41°21' E 002°11'0 0.0
2018-Aug-09 03:30N 41°21' E 002°11'0 0.0
2018-Aug-09 03:00N 41°21' E 002°11'0 0.0
2018-Aug-09 02:30N 41°21' E 002°11'0 0.0
2018-Aug-09 02:00N 41°21' E 002°11'0 0.0
2018-Aug-09 01:30N 41°21' E 002°11'0 0.0
2018-Aug-09 01:00N 41°21' E 002°11'0 0.0
2018-Aug-09 00:30N 41°21' E 002°11'0 0.0
2018-Aug-09 00:00N 41°21' E 002°11'5369.8
2018-Aug-09 00:00N 41°18' E 002°06'5 9.9 1014.0 28.0 26.0
2018-Aug-08 23:30N 41°21' E 002°11'0 0.0
2018-Aug-08 23:00N 41°21' E 002°11'0 0.0
2018-Aug-08 22:30N 41°21' E 002°11'0 0.0
2018-Aug-08 22:00N 41°21' E 002°11'0 0.0
2018-Aug-08 21:30N 41°21' E 002°11'0 0.0
2018-Aug-08 21:00N 41°21' E 002°11'0 0.0
2018-Aug-08 20:30N 41°21' E 002°11'0 0.0
2018-Aug-08 20:00N 41°21' E 002°11'0 0.0
2018-Aug-08 19:30N 41°21' E 002°11'0 0.0
2018-Aug-08 19:00N 41°21' E 002°11'0 0.0
2018-Aug-08 18:30N 41°21' E 002°11'0 0.0
2018-Aug-08 18:00N 41°21' E 002°11'0 0.0
2018-Aug-08 17:29N 41°21' E 002°11'0 0.0
2018-Aug-08 16:59N 41°21' E 002°11'0 0.0
2018-Aug-08 16:29N 41°21' E 002°11'0 0.0
2018-Aug-08 15:59N 41°21' E 002°11'0 0.0
2018-Aug-08 15:29N 41°21' E 002°11'0 0.0
2018-Aug-08 14:59N 41°21' E 002°11'0 0.0
2018-Aug-08 14:29N 41°21' E 002°11'0 0.0
2018-Aug-08 13:59N 41°21' E 002°11'0 0.4
2018-Aug-08 13:31N 41°21' E 002°10'3 6.3
2018-Aug-08 13:00N 41°18' E 002°11'815.3
2018-Aug-08 12:30N 41°11' E 002°10'713.6
2018-Aug-08 12:00N 41°04' E 002°08'4290.0
2018-Aug-08 12:00N 41°00' E 002°06'5 7.4 1015.010.8 30.0 28.0
2018-Aug-08 11:20N 40°56' E 002°03'1545.3
2018-Aug-08 11:00N 40°42' E 001°54'6813.6 230 / 71014.010.8 30.024.329.0
2018-Aug-08 06:00N 39°42' E 001°12'9219.5 1013.010.8 28.0 27.0
2018-Aug-08 01:17N 38°23' E 000°13'519.1
2018-Aug-08 01:00N 38°18' E 000°10'1218.7
2018-Aug-08 00:21N 38°08' E 000°01'718.7
2018-Aug-08 00:00N 38°02' W 000°04'918.4
2018-Aug-07 23:30N 37°55' W 000°11'918.4
2018-Aug-07 22:59N 37°47' W 000°18'918.4
2018-Aug-07 22:30N 37°40' W 000°25'1218.1
2018-Aug-07 21:50N 37°31' W 000°34'617.7
2018-Aug-07 21:30N 37°26' W 000°39'918.1
2018-Aug-07 21:00N 37°20' W 000°47'1318.3
2018-Aug-07 20:17N 37°11' W 000°59'618.5
2018-Aug-07 19:57N 37°07' W 001°05'818.5
2018-Aug-07 19:30N 37°01' W 001°13'3522.8
2018-Aug-07 18:00N 36°36' W 001°42'2613.2 030 / 151011.0 2.2 27.025.626.0
2018-Aug-07 16:00N 36°18' W 002°06'7318.2 1011.010.8 28.0 27.0
2018-Aug-07 12:00N 36°12' W 003°36'5919.8 100 / 81012.010.8 28.0 21.0
2018-Aug-07 09:00N 36°00' W 004°48'2040.0 1012.0 2.2 24.022.520.0
2018-Aug-07 08:29N 36°00' W 005°13'1019.7
2018-Aug-07 08:00N 35°58' W 005°24'3115.2
2018-Aug-07 06:00N 35°48' W 006°00'2022.7 1012.010.8 24.0 22.0
2018-Aug-07 05:05N 35°55' W 006°24'618.8
2018-Aug-07 04:47N 35°56' W 006°30'619.0
2018-Aug-07 04:27N 35°59' W 006°38'818.5
2018-Aug-07 03:59N 36°01' W 006°48'917.6
2018-Aug-07 03:30N 36°03' W 006°58'5118.0
2018-Aug-07 00:39N 36°15' W 007°60'318.5
2018-Aug-07 00:29N 36°16' W 008°04'918.1
2018-Aug-07 00:00N 36°18' W 008°14'918.1
2018-Aug-06 23:30N 36°21' W 008°25'918.1
2018-Aug-06 23:00N 36°24' W 008°35'917.8
2018-Aug-06 22:30N 36°26' W 008°46'917.6
2018-Aug-06 21:59N 36°29' W 008°57'817.4
2018-Aug-06 21:30N 36°30' W 009°07'917.4
2018-Aug-06 21:00N 36°33' W 009°18'917.7
2018-Aug-06 20:30N 36°39' W 009°25'918.1
2018-Aug-06 20:00N 36°46' W 009°32'261628.2
2018-Aug-06 20:00N 37°12' W 009°30'1836.4 350 / 211015.0 23.019.921.0
2018-Aug-06 19:30N 36°55' W 009°36'918.1
2018-Aug-06 19:00N 37°04' W 009°37'918.8
2018-Aug-06 18:30N 37°13' W 009°35'918.5
2018-Aug-06 18:00N 37°22' W 009°33'918.2
2018-Aug-06 17:30N 37°31' W 009°31'917.4
2018-Aug-06 17:00N 37°40' W 009°30'4255.0
2018-Aug-06 17:00N 37°36' W 009°30'1327.2 1015.0 5.4 22.0 20.0
2018-Aug-06 16:30N 37°49' W 009°32'918.8
2018-Aug-06 16:00N 37°59' W 009°31'1019.1
2018-Aug-06 15:30N 38°08' W 009°30'1019.1
2018-Aug-06 15:00N 38°18' W 009°29'919.0
2018-Aug-06 14:30N 38°27' W 009°27'918.7
2018-Aug-06 14:01N 38°36' W 009°24'917.3
2018-Aug-06 13:30N 38°41' W 009°15'611.8
2018-Aug-06 13:00N 38°42' W 009°08'0 0.3
2018-Aug-06 12:30N 38°42' W 009°08'0 0.0
2018-Aug-06 12:00N 38°42' W 009°08'0 0.0
2018-Aug-06 11:30N 38°42' W 009°08'0 0.0
2018-Aug-06 11:00N 38°42' W 009°08'0 0.0
2018-Aug-06 10:30N 38°42' W 009°08'0 0.0
2018-Aug-06 10:00N 38°42' W 009°08'0 0.0
2018-Aug-06 09:30N 38°42' W 009°08'0 0.0
2018-Aug-06 09:00N 38°42' W 009°08'0 0.0
2018-Aug-06 08:30N 38°42' W 009°08'0 0.0
2018-Aug-06 08:00N 38°42' W 009°08'0 0.0
2018-Aug-06 07:30N 38°42' W 009°08'0 0.0
2018-Aug-06 06:57N 38°42' W 009°08'0 0.0
2018-Aug-06 06:30N 38°42' W 009°08'0 0.0
2018-Aug-06 06:00N 38°42' W 009°08'0 0.0
2018-Aug-06 05:30N 38°42' W 009°08'0 0.0
2018-Aug-06 05:00N 38°42' W 009°08'0 0.0
2018-Aug-06 04:30N 38°42' W 009°08'0 0.0
2018-Aug-06 04:00N 38°42' W 009°08'0 0.0
2018-Aug-06 03:30N 38°42' W 009°08'0 0.0
2018-Aug-06 03:00N 38°42' W 009°08'0 0.0
2018-Aug-06 02:30N 38°42' W 009°08'0 0.0
2018-Aug-06 02:00N 38°42' W 009°08'0 0.0
2018-Aug-06 01:30N 38°42' W 009°08'0 0.0
2018-Aug-06 01:00N 38°42' W 009°08'0 0.0
2018-Aug-06 00:30N 38°42' W 009°08'0 0.0
2018-Aug-06 00:00N 38°42' W 009°08'0 0.0
2018-Aug-05 23:24N 38°42' W 009°08'0 0.0
2018-Aug-05 23:00N 38°42' W 009°08'0 0.0
2018-Aug-05 22:30N 38°42' W 009°08'0 0.0
2018-Aug-05 22:00N 38°42' W 009°08'0 0.0
2018-Aug-05 21:30N 38°42' W 009°08'0 0.0
2018-Aug-05 21:00N 38°42' W 009°08'0 0.0
2018-Aug-05 20:30N 38°42' W 009°08'0 0.0
2018-Aug-05 20:00N 38°42' W 009°08'0 0.0
2018-Aug-05 19:30N 38°42' W 009°08'0 0.0
2018-Aug-05 19:00N 38°42' W 009°08'0 0.0
2018-Aug-05 18:30N 38°42' W 009°08'0 0.0
2018-Aug-05 17:54N 38°42' W 009°08'0 0.0
2018-Aug-05 17:27N 38°42' W 009°08'0 0.0
2018-Aug-05 16:57N 38°42' W 009°08'0 0.0
2018-Aug-05 16:30N 38°42' W 009°08'0 0.0
2018-Aug-05 16:00N 38°42' W 009°08'0 0.0
2018-Aug-05 15:30N 38°42' W 009°08'0 0.0
2018-Aug-05 15:00N 38°42' W 009°08'0 0.0
2018-Aug-05 14:30N 38°42' W 009°08'0 0.0
2018-Aug-05 13:27N 38°42' W 009°08'0 0.0
2018-Aug-05 13:00N 38°42' W 009°08'186.7
2018-Aug-05 13:00N 38°42' W 009°06'1 2.9 1015.0 40.0 23.0
2018-Aug-05 12:30N 38°42' W 009°08'0 0.0
2018-Aug-05 12:00N 38°42' W 009°08'0 0.0
2018-Aug-05 11:30N 38°42' W 009°08'0 0.0
2018-Aug-05 11:00N 38°42' W 009°08'0 0.0
2018-Aug-05 10:30N 38°42' W 009°08'0 0.0
2018-Aug-05 10:00N 38°42' W 009°08'0 0.0
2018-Aug-05 09:30N 38°42' W 009°08'0 0.0
2018-Aug-05 09:00N 38°42' W 009°08'0 0.0
2018-Aug-05 08:30N 38°42' W 009°08'0 0.0
2018-Aug-05 08:00N 38°42' W 009°08'0 0.0
2018-Aug-05 07:30N 38°42' W 009°08'0 0.0
2018-Aug-05 07:00N 38°42' W 009°08'0 0.3
2018-Aug-05 06:30N 38°42' W 009°08'5 9.0
2018-Aug-05 06:00N 38°41' W 009°13'6389.4
2018-Aug-05 06:00N 38°36' W 009°18'3 6.6 1016.010.8 31.0 17.0
2018-Aug-05 05:30N 38°39' W 009°20'713.7
2018-Aug-05 05:01N 38°36' W 009°29'714.7
2018-Aug-05 04:30N 38°37' W 009°38'611.9
2018-Aug-05 04:01N 38°42' W 009°43'  

Dump ship's entire track history